createdAt,value
2022-09-26T00:01:28.279Z,9.90
2022-09-26T00:03:56.883Z,9.90
2022-09-26T00:06:26.413Z,9.90
2022-09-26T00:08:54.738Z,9.90
2022-09-26T00:11:23.991Z,9.90
2022-09-26T00:13:52.703Z,9.90
2022-09-26T00:16:20.952Z,9.90
2022-09-26T00:18:49.648Z,9.80
2022-09-26T00:21:17.721Z,9.80
2022-09-26T00:23:47.520Z,9.90
2022-09-26T00:26:16.601Z,9.90
2022-09-26T00:28:44.487Z,9.90
2022-09-26T00:31:14.317Z,9.90
2022-09-26T00:33:42.333Z,9.90
2022-09-26T00:36:10.744Z,9.90
2022-09-26T00:38:38.715Z,9.90
2022-09-26T00:41:08.565Z,9.90
2022-09-26T00:43:37.492Z,9.90
2022-09-26T00:46:07.683Z,9.90
2022-09-26T00:48:36.471Z,9.90
2022-09-26T00:51:05.130Z,9.90
2022-09-26T00:53:37.093Z,9.90
2022-09-26T00:56:06.270Z,9.90
2022-09-26T00:58:36.948Z,9.90
2022-09-26T01:01:04.959Z,9.90
2022-09-26T01:03:33.329Z,9.90
2022-09-26T01:06:01.911Z,9.90
2022-09-26T01:08:33.164Z,9.90
2022-09-26T01:11:01.615Z,9.90
2022-09-26T01:13:29.752Z,9.90
2022-09-26T01:15:58.973Z,9.90
2022-09-26T01:18:27.117Z,9.90
2022-09-26T01:20:57.912Z,9.90
2022-09-26T01:23:44.429Z,9.90
2022-09-26T01:26:27.150Z,9.90
2022-09-26T01:29:05.855Z,9.90
2022-09-26T01:31:38.438Z,9.90
2022-09-26T01:34:10.827Z,9.90
2022-09-26T01:37:10.841Z,9.90
2022-09-26T01:39:43.946Z,9.90
2022-09-26T01:42:16.734Z,9.90
2022-09-26T01:44:48.372Z,9.90
2022-09-26T01:47:18.893Z,10.00
2022-09-26T01:49:51.708Z,10.00
2022-09-26T01:52:23.693Z,10.00
2022-09-26T01:54:54.570Z,10.00
2022-09-26T01:57:25.465Z,10.00
2022-09-26T01:59:55.866Z,10.00
2022-09-26T02:02:26.807Z,10.10
2022-09-26T02:04:55.859Z,10.00
2022-09-26T02:07:31.307Z,10.10
2022-09-26T02:10:02.556Z,10.10
2022-09-26T02:12:33.146Z,10.10
2022-09-26T02:15:02.326Z,10.10
2022-09-26T02:17:34.448Z,10.10
2022-09-26T02:20:04.629Z,10.10
2022-09-26T02:22:34.690Z,10.10
2022-09-26T02:25:03.114Z,10.10
2022-09-26T02:27:31.222Z,10.10
2022-09-26T02:29:59.639Z,10.10
2022-09-26T02:32:30.558Z,10.10
2022-09-26T02:35:00.044Z,10.10
2022-09-26T02:37:29.006Z,10.10
2022-09-26T02:39:57.042Z,10.10
2022-09-26T02:42:28.345Z,10.20
2022-09-26T02:45:06.195Z,10.10
2022-09-26T02:47:45.824Z,10.20
2022-09-26T02:50:25.435Z,10.10
2022-09-26T02:52:56.832Z,10.20
2022-09-26T02:55:28.131Z,10.20
2022-09-26T02:58:05.878Z,10.10
2022-09-26T03:00:37.620Z,10.20
2022-09-26T03:03:07.995Z,10.20
2022-09-26T03:05:39.041Z,10.10
2022-09-26T03:08:10.167Z,10.20
2022-09-26T03:10:38.884Z,10.20
2022-09-26T03:13:08.376Z,10.20
2022-09-26T03:15:38.061Z,10.20
2022-09-26T03:18:07.917Z,10.20
2022-09-26T03:20:37.273Z,10.20
2022-09-26T03:23:05.383Z,10.20
2022-09-26T03:25:33.540Z,10.20
2022-09-26T03:28:02.276Z,10.20
2022-09-26T03:30:30.732Z,10.20
2022-09-26T03:32:58.622Z,10.20
2022-09-26T03:35:26.524Z,10.30
2022-09-26T03:37:55.806Z,10.30
2022-09-26T03:40:23.800Z,10.20
2022-09-26T03:42:51.728Z,10.30
2022-09-26T03:45:20.381Z,10.30
2022-09-26T03:47:48.401Z,10.30
2022-09-26T03:50:16.528Z,10.30
2022-09-26T03:52:44.531Z,10.40
2022-09-26T03:55:13.905Z,10.40
2022-09-26T03:57:41.915Z,10.40
2022-09-26T04:00:10.550Z,10.40
2022-09-26T04:02:39.063Z,10.40
2022-09-26T04:05:07.164Z,10.40
2022-09-26T04:07:35.022Z,10.40
2022-09-26T04:10:03.036Z,10.40
2022-09-26T04:12:32.494Z,10.50
2022-09-26T04:15:00.462Z,10.50
2022-09-26T04:17:29.353Z,10.50
2022-09-26T04:19:57.233Z,10.50
2022-09-26T04:22:25.602Z,10.50
2022-09-26T04:24:53.569Z,10.50
2022-09-26T04:27:21.576Z,10.50
2022-09-26T04:29:50.858Z,10.50
2022-09-26T04:32:19.645Z,10.50
2022-09-26T04:34:47.569Z,10.60
2022-09-26T04:37:15.463Z,10.60
2022-09-26T04:39:43.753Z,10.60
2022-09-26T04:42:11.743Z,10.60
2022-09-26T04:44:39.674Z,10.60
2022-09-26T04:47:09.134Z,10.60
2022-09-26T04:49:37.065Z,10.60
2022-09-26T04:52:05.140Z,10.60
2022-09-26T04:54:33.074Z,10.60
2022-09-26T04:57:00.980Z,10.60
2022-09-26T04:59:28.826Z,10.60
2022-09-26T05:01:56.815Z,10.60
2022-09-26T05:04:27.739Z,10.60
2022-09-26T05:06:57.798Z,10.50
2022-09-26T05:09:26.126Z,10.60
2022-09-26T05:11:54.201Z,10.50
2022-09-26T05:14:22.210Z,10.50
2022-09-26T05:16:50.247Z,10.60
2022-09-26T05:19:18.276Z,10.50
2022-09-26T05:21:47.736Z,10.50
2022-09-26T05:24:33.053Z,10.50
2022-09-26T05:27:00.958Z,10.70
2022-09-26T05:29:28.838Z,10.50
2022-09-26T05:31:56.835Z,10.50
2022-09-26T05:34:24.976Z,10.60
2022-09-26T05:36:54.307Z,10.60
2022-09-26T05:39:42.414Z,10.50
2022-09-26T05:42:10.773Z,10.50
2022-09-26T05:44:39.782Z,10.50
2022-09-26T05:47:08.577Z,10.60
2022-09-26T05:49:36.650Z,10.50
2022-09-26T05:52:06.101Z,10.50
2022-09-26T05:54:34.024Z,10.50
2022-09-26T05:57:01.908Z,10.50
2022-09-26T05:59:29.860Z,10.50
2022-09-26T06:01:58.633Z,10.50
2022-09-26T06:04:28.161Z,10.60
2022-09-26T06:06:56.024Z,10.50
2022-09-26T06:09:25.312Z,10.50
2022-09-26T06:11:53.173Z,10.50
2022-09-26T06:14:21.188Z,10.50
2022-09-26T06:16:49.208Z,10.50
2022-09-26T06:19:20.685Z,10.50
2022-09-26T06:21:51.040Z,10.50
2022-09-26T06:24:20.291Z,10.50
2022-09-26T06:26:49.602Z,10.50
2022-09-26T06:29:17.453Z,10.60
2022-09-26T06:31:45.673Z,10.60
2022-09-26T06:34:13.907Z,10.60
2022-09-26T06:36:41.963Z,10.60
2022-09-26T06:39:10.006Z,10.60
2022-09-26T06:41:38.112Z,10.60
2022-09-26T06:44:07.342Z,10.60
2022-09-26T06:46:35.377Z,10.60
2022-09-26T06:49:03.364Z,10.60
2022-09-26T06:51:31.869Z,10.60
2022-09-26T06:54:00.504Z,10.60
2022-09-26T06:56:28.426Z,10.60
2022-09-26T06:58:56.355Z,10.60
2022-09-26T07:01:25.699Z,10.70
2022-09-26T07:03:54.509Z,10.90
2022-09-26T07:06:22.507Z,10.70
2022-09-26T07:09:02.376Z,10.80
2022-09-26T07:11:46.233Z,10.80
2022-09-26T07:14:20.332Z,10.80
2022-09-26T07:16:50.848Z,10.80
2022-09-26T07:19:18.722Z,10.90
2022-09-26T07:21:46.937Z,10.90
2022-09-26T07:24:14.884Z,10.90
2022-09-26T07:26:43.205Z,11.00
2022-09-26T07:29:11.319Z,11.00
2022-09-26T07:31:39.491Z,11.00
2022-09-26T07:34:10.227Z,11.00
2022-09-26T07:36:40.803Z,11.00
2022-09-26T07:39:08.717Z,11.10
2022-09-26T07:41:36.587Z,11.00
2022-09-26T07:45:08.694Z,11.10
2022-09-26T07:47:09.969Z,11.10
2022-09-26T07:49:56.572Z,11.10
2022-09-26T07:52:24.476Z,11.10
2022-09-26T07:54:52.414Z,11.10
2022-09-26T07:57:20.690Z,11.10
2022-09-26T07:59:50.314Z,11.10
2022-09-26T08:02:22.025Z,11.10
2022-09-26T08:04:58.847Z,11.10
2022-09-26T08:07:29.220Z,11.10
2022-09-26T08:09:58.733Z,11.10
2022-09-26T08:12:27.081Z,11.20
2022-09-26T08:14:57.822Z,11.10
2022-09-26T08:17:25.774Z,11.20
2022-09-26T08:19:55.081Z,11.20
2022-09-26T08:22:23.042Z,11.20
2022-09-26T08:24:51.025Z,11.20
2022-09-26T08:27:19.301Z,11.20
2022-09-26T08:29:48.512Z,11.20
2022-09-26T08:32:16.471Z,11.20
2022-09-26T08:34:44.829Z,11.20
2022-09-26T08:37:15.991Z,11.20
2022-09-26T08:39:44.011Z,11.20
2022-09-26T08:42:24.026Z,11.30
2022-09-26T08:45:10.324Z,11.30
2022-09-26T08:47:44.140Z,11.30
2022-09-26T08:50:17.298Z,11.30
2022-09-26T08:52:50.095Z,11.30
2022-09-26T08:55:21.131Z,11.30
2022-09-26T08:57:50.230Z,11.30
2022-09-26T09:00:20.100Z,11.40
2022-09-26T09:02:57.091Z,11.40
2022-09-26T09:05:27.449Z,11.40
2022-09-26T09:07:57.678Z,11.40
2022-09-26T09:10:32.518Z,11.40
2022-09-26T09:13:05.489Z,11.40
2022-09-26T09:15:38.966Z,11.40
2022-09-26T09:18:13.732Z,11.40
2022-09-26T09:20:47.792Z,11.40
2022-09-26T09:23:23.904Z,11.40
2022-09-26T09:25:56.323Z,11.40
2022-09-26T09:28:30.423Z,11.50
2022-09-26T09:31:00.487Z,11.40
2022-09-26T09:33:30.212Z,11.50
2022-09-26T09:36:00.829Z,11.50
2022-09-26T09:38:31.212Z,11.50
2022-09-26T09:41:01.151Z,11.50
2022-09-26T09:43:31.825Z,11.50
2022-09-26T09:46:04.177Z,11.50
2022-09-26T09:48:32.144Z,11.50
2022-09-26T09:51:06.972Z,11.50
2022-09-26T09:53:45.766Z,11.50
2022-09-26T09:56:19.285Z,11.50
2022-09-26T09:58:53.872Z,11.40
2022-09-26T10:01:25.635Z,11.50
2022-09-26T10:03:56.624Z,11.50
2022-09-26T10:06:44.729Z,11.40
2022-09-26T10:09:39.138Z,11.40
2022-09-26T10:12:08.951Z,11.40
2022-09-26T10:14:39.573Z,11.40
2022-09-26T10:17:14.721Z,11.40
2022-09-26T10:19:44.176Z,11.40
2022-09-26T10:22:15.371Z,11.40
2022-09-26T10:24:46.406Z,11.40
2022-09-26T10:27:16.648Z,11.40
2022-09-26T10:29:45.115Z,11.50
2022-09-26T10:32:13.075Z,11.50
2022-09-26T10:34:40.980Z,11.50
2022-09-26T10:37:23.090Z,11.60
2022-09-26T10:40:13.577Z,11.60
2022-09-26T10:42:44.180Z,11.70
2022-09-26T10:45:15.852Z,11.80
2022-09-26T10:47:46.149Z,11.80
2022-09-26T10:50:16.544Z,11.80
2022-09-26T10:52:46.618Z,11.80
2022-09-26T10:55:17.501Z,11.80
2022-09-26T10:57:47.357Z,11.90
2022-09-26T11:00:18.872Z,11.80
2022-09-26T11:02:49.241Z,11.80
2022-09-26T11:05:35.045Z,12.70
2022-09-26T11:08:04.424Z,11.90
2022-09-26T11:10:34.374Z,11.90
2022-09-26T11:13:03.372Z,11.90
2022-09-26T11:15:31.735Z,11.80
2022-09-26T11:17:59.781Z,11.90
2022-09-26T11:20:36.346Z,11.90
2022-09-26T11:23:07.838Z,11.80
2022-09-26T11:25:44.592Z,11.80
2022-09-26T11:28:15.228Z,11.80
2022-09-26T11:39:38.234Z,11.80
2022-09-26T11:42:15.917Z,11.70
2022-09-26T11:44:50.650Z,11.70
2022-09-26T11:47:34.341Z,11.40
2022-09-26T11:50:09.066Z,11.60
2022-09-26T11:52:48.373Z,11.60
2022-09-26T11:55:21.358Z,11.60
2022-09-26T11:57:58.125Z,11.60
2022-09-26T12:00:29.468Z,11.50
2022-09-26T12:03:11.518Z,11.50
2022-09-26T12:05:42.701Z,11.50
2022-09-26T12:08:15.834Z,11.50
2022-09-26T12:10:49.192Z,11.40
2022-09-26T12:13:34.161Z,11.40
2022-09-26T12:16:09.353Z,11.40
2022-09-26T12:18:43.513Z,11.30
2022-09-26T12:21:17.241Z,11.40
2022-09-26T12:23:48.703Z,11.30
2022-09-26T12:26:19.932Z,11.30
2022-09-26T12:28:57.472Z,11.30
2022-09-26T12:31:31.867Z,11.30
2022-09-26T12:34:12.334Z,11.30
2022-09-26T12:36:47.969Z,11.30
2022-09-26T12:39:43.173Z,11.30
2022-09-26T12:42:17.267Z,11.40
2022-09-26T12:45:06.544Z,11.40
2022-09-26T12:47:52.593Z,11.30
2022-09-26T12:50:31.072Z,11.30
2022-09-26T12:53:12.212Z,11.30
2022-09-26T12:55:44.896Z,11.30
2022-09-26T12:58:21.922Z,11.30
2022-09-26T13:00:57.321Z,11.30
2022-09-26T13:03:36.140Z,11.30
2022-09-26T13:06:12.293Z,11.30
2022-09-26T13:08:46.125Z,11.30
2022-09-26T13:11:18.369Z,11.30
2022-09-26T13:13:54.226Z,11.30
2022-09-26T13:16:31.744Z,11.30
2022-09-26T13:19:03.173Z,11.20
2022-09-26T13:21:38.505Z,11.30
2022-09-26T13:24:08.630Z,11.20
2022-09-26T13:26:38.655Z,11.20
2022-09-26T13:29:17.901Z,11.20
2022-09-26T13:31:48.404Z,11.20
2022-09-26T13:34:20.292Z,11.20
2022-09-26T13:36:49.782Z,11.20
2022-09-26T13:39:21.672Z,11.20
2022-09-26T13:41:52.440Z,11.20
2022-09-26T13:44:28.240Z,11.20
2022-09-26T13:47:03.358Z,11.10
2022-09-26T13:49:34.418Z,11.10
2022-09-26T13:52:13.886Z,11.10
2022-09-26T13:54:54.907Z,11.10
2022-09-26T13:57:31.787Z,11.10
2022-09-26T13:59:59.701Z,11.10
2022-09-26T14:02:30.243Z,11.10
2022-09-26T14:05:17.146Z,11.10
2022-09-26T14:08:08.752Z,11.10
2022-09-26T14:10:37.652Z,11.10
2022-09-26T14:13:21.868Z,11.10
2022-09-26T14:15:57.354Z,11.10
2022-09-26T14:18:29.932Z,11.10
2022-09-26T14:21:05.043Z,11.10
2022-09-26T14:23:43.793Z,11.10
2022-09-26T14:26:13.084Z,11.10
2022-09-26T14:28:41.517Z,11.10
2022-09-26T14:31:27.521Z,11.10
2022-09-26T14:34:11.381Z,11.10
2022-09-26T14:36:39.534Z,11.10
2022-09-26T14:39:07.501Z,11.20
2022-09-26T14:41:36.828Z,11.10
2022-09-26T14:44:06.313Z,11.10
2022-09-26T14:46:35.923Z,11.20
2022-09-26T14:49:05.470Z,11.10
2022-09-26T14:51:37.110Z,11.20
2022-09-26T14:54:05.964Z,11.10
2022-09-26T14:56:41.945Z,11.10
2022-09-26T14:59:28.601Z,11.20
2022-09-26T15:02:16.183Z,11.10
2022-09-26T15:04:45.252Z,11.20
2022-09-26T15:07:16.259Z,11.20
2022-09-26T15:09:45.427Z,11.20
2022-09-26T15:12:15.512Z,11.20
2022-09-26T15:14:45.913Z,11.20
2022-09-26T15:17:17.606Z,11.20
2022-09-26T15:19:48.534Z,11.20
2022-09-26T15:22:19.599Z,11.20
2022-09-26T15:24:47.665Z,11.20
2022-09-26T15:27:19.474Z,11.20
2022-09-26T15:29:48.188Z,11.30
2022-09-26T15:32:20.269Z,11.30
2022-09-26T15:34:48.693Z,11.30
2022-09-26T15:37:19.966Z,11.30
2022-09-26T15:39:48.067Z,11.30
2022-09-26T15:42:50.982Z,11.30
2022-09-26T15:45:27.663Z,11.30
2022-09-26T15:47:56.422Z,11.30
2022-09-26T15:50:26.673Z,11.30
2022-09-26T15:52:59.203Z,11.30
2022-09-26T15:55:29.320Z,11.30
2022-09-26T15:57:59.875Z,11.30
2022-09-26T16:00:31.208Z,11.30
2022-09-26T16:02:59.841Z,11.30
2022-09-26T16:05:28.142Z,11.30
2022-09-26T16:07:58.663Z,11.30
2022-09-26T16:10:29.635Z,11.30
2022-09-26T16:12:58.455Z,11.30
2022-09-26T16:15:28.806Z,11.30
2022-09-26T16:17:58.043Z,11.30
2022-09-26T16:20:28.977Z,11.30
2022-09-26T16:23:04.023Z,11.30
2022-09-26T16:25:34.539Z,11.30
2022-09-26T16:28:32.120Z,11.30
2022-09-26T16:31:10.312Z,11.40
2022-09-26T16:33:40.942Z,11.30
2022-09-26T16:36:16.123Z,11.40
2022-09-26T16:38:50.895Z,11.30
2022-09-26T16:41:49.073Z,11.30
2022-09-26T16:44:26.283Z,11.30
2022-09-26T16:46:58.972Z,11.30
2022-09-26T16:49:39.854Z,11.30
2022-09-26T16:52:26.814Z,11.30
2022-09-26T16:54:56.984Z,11.30
2022-09-26T16:57:26.711Z,11.30
2022-09-26T17:00:15.005Z,11.40
2022-09-26T17:02:42.050Z,11.30
2022-09-26T17:05:15.198Z,11.30
2022-09-26T17:07:43.162Z,11.30
2022-09-26T17:10:12.820Z,11.30
2022-09-26T17:12:40.994Z,11.30
2022-09-26T17:15:09.944Z,11.30
2022-09-26T17:17:38.318Z,11.30
2022-09-26T17:20:06.907Z,11.30
2022-09-26T17:22:34.991Z,11.30
2022-09-26T17:25:04.452Z,11.30
2022-09-26T17:27:38.080Z,11.30
2022-09-26T17:30:08.698Z,11.30
2022-09-26T17:32:37.546Z,11.30
2022-09-26T17:35:08.881Z,11.30
2022-09-26T17:37:36.891Z,11.30
2022-09-26T17:40:07.435Z,11.30
2022-09-26T17:42:36.826Z,11.30
2022-09-26T17:45:05.033Z,11.30
2022-09-26T17:47:33.040Z,11.30
2022-09-26T17:50:01.033Z,11.30
2022-09-26T17:52:30.052Z,11.30
2022-09-26T17:54:59.833Z,11.30
2022-09-26T17:57:30.073Z,11.30
2022-09-26T18:00:00.071Z,11.30
2022-09-26T18:02:30.656Z,11.30
2022-09-26T18:05:00.378Z,11.30
2022-09-26T18:07:31.162Z,11.30
2022-09-26T18:09:59.344Z,11.30
2022-09-26T18:12:27.274Z,11.30
2022-09-26T18:14:55.932Z,11.30
2022-09-26T18:17:25.347Z,11.30
2022-09-26T18:19:54.177Z,11.30
2022-09-26T18:22:25.723Z,11.30
2022-09-26T18:24:56.593Z,11.30
2022-09-26T18:27:24.579Z,11.30
2022-09-26T18:29:52.809Z,11.30
2022-09-26T18:32:24.230Z,11.30
2022-09-26T18:34:53.811Z,11.30
2022-09-26T18:37:21.930Z,11.30
2022-09-26T18:39:54.654Z,11.30
2022-09-26T18:42:24.578Z,11.30
2022-09-26T18:44:57.222Z,11.30
2022-09-26T18:47:25.160Z,11.30
2022-09-26T18:49:54.481Z,11.30
2022-09-26T18:52:22.515Z,11.30
2022-09-26T18:55:10.428Z,11.30
2022-09-26T18:57:55.947Z,11.30
2022-09-26T19:00:25.063Z,11.30
2022-09-26T19:02:54.004Z,11.30
2022-09-26T19:05:23.542Z,11.30
2022-09-26T19:07:51.956Z,11.30
2022-09-26T19:10:22.170Z,11.30
2022-09-26T19:12:50.454Z,11.30
2022-09-26T19:15:18.609Z,11.30
2022-09-26T19:17:46.565Z,11.30
2022-09-26T19:20:14.603Z,11.30
2022-09-26T19:22:44.050Z,11.30
2022-09-26T19:25:12.143Z,11.30
2022-09-26T19:27:43.430Z,11.30
2022-09-26T19:30:14.667Z,11.30
2022-09-26T19:32:44.433Z,11.30
2022-09-26T19:35:16.886Z,11.30
2022-09-26T19:37:46.841Z,11.30
2022-09-26T19:40:15.600Z,11.30
2022-09-26T19:42:43.984Z,11.20
2022-09-26T19:45:12.774Z,11.20
2022-09-26T19:47:44.143Z,11.30
2022-09-26T19:50:15.280Z,11.30
2022-09-26T19:52:43.591Z,11.30
2022-09-26T19:55:18.384Z,11.30
2022-09-26T19:57:46.422Z,11.30
2022-09-26T20:00:15.041Z,11.30
2022-09-26T20:02:43.404Z,11.20
2022-09-26T20:05:16.102Z,11.30
2022-09-26T20:07:44.572Z,11.30
2022-09-26T20:10:15.853Z,11.30
2022-09-26T20:12:45.348Z,11.30
2022-09-26T20:15:14.105Z,11.30
2022-09-26T20:17:43.148Z,11.30
2022-09-26T20:20:14.632Z,11.30
2022-09-26T20:22:43.469Z,11.30
2022-09-26T20:25:15.604Z,11.30
2022-09-26T20:27:45.008Z,11.30
2022-09-26T20:30:32.193Z,11.30
2022-09-26T20:33:00.297Z,11.30
2022-09-26T20:35:31.985Z,11.30
2022-09-26T20:38:03.979Z,11.30
2022-09-26T20:40:32.151Z,11.40
2022-09-26T20:43:03.756Z,11.40
2022-09-26T20:45:33.982Z,11.40
2022-09-26T20:48:02.149Z,11.40
2022-09-26T20:50:34.107Z,11.40
2022-09-26T20:53:02.666Z,11.40
2022-09-26T20:55:32.527Z,11.40
2022-09-26T20:58:01.992Z,11.40
2022-09-26T21:00:29.935Z,11.90
2022-09-26T21:02:57.992Z,11.40
2022-09-26T21:05:27.333Z,11.40
2022-09-26T21:07:56.473Z,11.40
2022-09-26T21:10:25.409Z,11.40
2022-09-26T21:12:53.929Z,11.40
2022-09-26T21:15:23.667Z,11.40
2022-09-26T21:17:52.111Z,11.40
2022-09-26T21:20:23.573Z,11.40
2022-09-26T21:22:51.556Z,11.30
2022-09-26T21:25:20.227Z,11.90
2022-09-26T21:27:49.112Z,11.30
2022-09-26T21:30:17.557Z,11.40
2022-09-26T21:32:47.820Z,11.40
2022-09-26T21:35:16.966Z,11.30
2022-09-26T21:37:46.217Z,11.40
2022-09-26T21:40:14.316Z,11.40
2022-09-26T21:42:44.050Z,11.40
2022-09-26T21:45:12.414Z,11.40
2022-09-26T21:47:40.568Z,11.40
2022-09-26T21:50:11.976Z,11.40
2022-09-26T21:52:41.102Z,11.40
2022-09-26T21:55:11.985Z,11.40
2022-09-26T21:57:44.662Z,11.40
2022-09-26T22:00:18.258Z,11.40
2022-09-26T22:02:46.717Z,9.80
2022-09-26T22:05:17.500Z,11.40
2022-09-26T22:07:45.469Z,11.40
2022-09-26T22:10:18.562Z,11.40
2022-09-26T22:12:47.016Z,11.40
2022-09-26T22:15:15.628Z,11.40
2022-09-26T22:17:43.735Z,11.40
2022-09-26T22:20:11.755Z,11.40
2022-09-26T22:22:41.064Z,11.40
2022-09-26T22:25:09.471Z,11.40
2022-09-26T22:27:40.000Z,11.40
2022-09-26T22:30:09.306Z,11.40
2022-09-26T22:32:37.263Z,11.40
2022-09-26T22:35:05.597Z,11.40
2022-09-26T22:37:33.838Z,11.40
2022-09-26T22:40:07.510Z,11.40
2022-09-26T22:42:35.596Z,11.40
2022-09-26T22:45:10.248Z,11.40
2022-09-26T22:47:38.417Z,11.30
2022-09-26T22:50:07.199Z,11.30
2022-09-26T22:52:35.637Z,11.30
2022-09-26T22:55:05.358Z,11.40
2022-09-26T22:57:33.908Z,11.40
2022-09-26T23:00:03.180Z,11.40
2022-09-26T23:02:31.774Z,12.50
2022-09-26T23:04:59.872Z,11.30
2022-09-26T23:07:27.979Z,11.30
2022-09-26T23:09:55.964Z,11.30
2022-09-26T23:12:25.467Z,11.30
2022-09-26T23:14:53.550Z,11.30
2022-09-26T23:17:21.502Z,11.30
2022-09-26T23:19:49.504Z,11.30
2022-09-26T23:22:20.535Z,11.30
2022-09-26T23:24:48.456Z,11.30
2022-09-26T23:27:19.658Z,11.30
2022-09-26T23:29:49.042Z,11.30
2022-09-26T23:32:19.335Z,11.30
2022-09-26T23:34:47.541Z,11.30
2022-09-26T23:37:15.773Z,11.30
2022-09-26T23:39:43.754Z,11.30
2022-09-26T23:42:12.734Z,11.30
2022-09-26T23:44:40.731Z,11.30
2022-09-26T23:47:12.712Z,11.30
2022-09-26T23:49:41.118Z,11.20
2022-09-26T23:52:09.082Z,11.20
2022-09-26T23:54:37.049Z,11.20
2022-09-26T23:57:05.124Z,11.20
2022-09-26T23:59:33.062Z,11.20
